createdAt,value
2022-07-28T00:00:39.015Z,25.78
2022-07-28T00:05:36.599Z,25.69
2022-07-28T00:10:39.049Z,25.81
2022-07-28T00:15:46.048Z,25.21
2022-07-28T00:26:04.759Z,25.42
2022-07-28T00:31:05.016Z,25.44
2022-07-28T00:36:06.696Z,25.56
2022-07-28T00:41:18.396Z,25.50
2022-07-28T00:46:26.451Z,25.32
2022-07-28T00:51:27.487Z,25.35
2022-07-28T00:56:29.946Z,25.20
2022-07-28T01:01:31.764Z,25.01
2022-07-28T01:06:52.882Z,24.74
2022-07-28T01:12:04.185Z,24.82
2022-07-28T01:17:13.097Z,24.77
2022-07-28T01:22:19.707Z,24.91
2022-07-28T01:27:54.596Z,24.79
2022-07-28T01:33:21.021Z,24.64
2022-07-28T01:38:20.037Z,24.52
2022-07-28T01:43:23.915Z,24.87
2022-07-28T01:48:25.037Z,25.00
2022-07-28T01:53:26.042Z,24.58
2022-07-28T01:58:30.173Z,24.80
2022-07-28T02:03:31.946Z,24.59
2022-07-28T02:08:32.378Z,24.03
2022-07-28T02:13:33.249Z,24.10
2022-07-28T02:18:33.870Z,24.14
2022-07-28T02:23:32.871Z,24.40
2022-07-28T02:28:35.066Z,23.80
2022-07-28T02:33:58.793Z,24.43
2022-07-28T02:39:06.382Z,24.35
2022-07-28T02:44:16.744Z,24.16
2022-07-28T02:49:34.361Z,24.00
2022-07-28T02:54:39.766Z,24.06
2022-07-28T02:59:44.403Z,24.03
2022-07-28T03:04:58.391Z,24.09
2022-07-28T03:09:59.916Z,23.91
2022-07-28T03:15:00.873Z,23.94
2022-07-28T03:20:06.345Z,23.63
2022-07-28T03:25:11.286Z,23.54
2022-07-28T03:30:18.487Z,23.50
2022-07-28T03:35:19.156Z,24.14
2022-07-28T03:47:01.412Z,24.00
2022-07-28T03:52:56.642Z,23.85
2022-07-28T03:59:38.634Z,23.64
2022-07-28T04:05:29.740Z,24.38
2022-07-28T04:22:51.324Z,24.94
2022-07-28T04:28:23.385Z,25.00
2022-07-28T04:33:24.477Z,24.83
2022-07-28T04:38:37.400Z,25.06
2022-07-28T04:44:35.408Z,24.76
2022-07-28T04:50:16.557Z,25.48
2022-07-28T04:55:40.275Z,25.40
2022-07-28T05:01:35.810Z,26.29
2022-07-28T05:07:20.547Z,26.57
2022-07-28T05:12:30.298Z,26.32
2022-07-28T05:17:30.810Z,26.39
2022-07-28T05:22:46.255Z,26.31
2022-07-28T05:27:50.382Z,26.54
2022-07-28T05:33:00.964Z,26.79
2022-07-28T05:38:11.355Z,27.37
2022-07-28T05:43:21.310Z,27.05
2022-07-28T05:48:32.088Z,27.57
2022-07-28T05:54:03.455Z,28.16
2022-07-28T06:04:56.513Z,29.41
2022-07-28T06:10:08.243Z,29.63
2022-07-28T06:16:17.721Z,29.35
2022-07-28T06:22:42.991Z,28.71
2022-07-28T06:28:50.055Z,29.36
2022-07-28T06:55:11.357Z,32.23
2022-07-28T07:06:37.035Z,32.65
2022-07-28T07:19:26.962Z,33.76
2022-07-28T07:32:20.657Z,35.24
2022-07-28T07:58:53.702Z,34.89
2022-07-28T11:23:58.934Z,34.93
2022-07-28T11:29:22.527Z,34.99
2022-07-28T11:34:26.341Z,35.11
2022-07-28T11:39:51.077Z,35.46
2022-07-28T11:44:49.479Z,35.82
2022-07-28T11:50:53.763Z,35.57
2022-07-28T11:56:13.119Z,36.11
2022-07-28T12:01:38.237Z,36.20
2022-07-28T12:06:40.212Z,35.95
2022-07-28T12:11:54.782Z,35.83
2022-07-28T12:16:54.833Z,35.52
2022-07-28T12:21:55.315Z,35.74
2022-07-28T12:26:59.100Z,35.71
2022-07-28T12:32:04.422Z,36.38
2022-07-28T12:37:05.606Z,36.37
2022-07-28T12:42:08.202Z,35.99
2022-07-28T12:47:08.460Z,36.10
2022-07-28T12:52:22.967Z,36.46
2022-07-28T12:57:50.350Z,36.36
2022-07-28T13:03:05.150Z,36.34
2022-07-28T13:08:18.914Z,36.13
2022-07-28T13:13:27.207Z,35.82
2022-07-28T13:18:52.480Z,35.61
2022-07-28T13:24:09.722Z,35.09
2022-07-28T13:29:59.643Z,35.54
2022-07-28T13:35:34.152Z,35.01
2022-07-28T13:41:15.853Z,34.86
2022-07-28T13:46:17.994Z,35.27
2022-07-28T13:51:27.555Z,35.07
2022-07-28T13:56:26.231Z,34.88
2022-07-28T14:01:24.584Z,34.51
2022-07-28T14:06:28.130Z,35.05
2022-07-28T14:11:27.231Z,34.67
2022-07-28T14:16:25.251Z,34.42
2022-07-28T14:21:22.337Z,33.37
2022-07-28T14:26:35.544Z,31.36
2022-07-28T14:31:38.407Z,29.19
2022-07-28T14:36:35.633Z,28.42
2022-07-28T14:41:33.437Z,28.01
2022-07-28T14:46:32.879Z,27.53
2022-07-28T14:51:34.260Z,27.43
2022-07-28T14:56:44.422Z,27.27
2022-07-28T15:01:41.687Z,27.22
2022-07-28T15:06:42.673Z,27.09
2022-07-28T15:11:49.382Z,27.46
2022-07-28T15:17:13.168Z,27.55
2022-07-28T15:22:19.495Z,27.76
2022-07-28T15:27:33.042Z,28.07
2022-07-28T15:32:31.794Z,28.50
2022-07-28T15:37:30.452Z,28.38
2022-07-28T15:42:28.162Z,28.70
2022-07-28T15:47:25.641Z,28.91
2022-07-28T15:52:40.496Z,28.91
2022-07-28T16:02:58.659Z,29.58
2022-07-28T16:07:57.454Z,29.98
2022-07-28T16:12:57.141Z,29.60
2022-07-28T16:17:54.846Z,29.69
2022-07-28T16:22:52.610Z,30.08
2022-07-28T16:28:03.022Z,29.80
2022-07-28T16:33:00.585Z,29.67
2022-07-28T16:37:59.900Z,29.78
2022-07-28T16:43:15.988Z,30.23
2022-07-28T16:48:25.892Z,29.79
2022-07-28T16:53:28.432Z,30.14
2022-07-28T16:58:37.100Z,29.82
2022-07-28T17:03:34.572Z,30.20
2022-07-28T17:09:27.598Z,29.95
2022-07-28T17:14:37.212Z,29.88
2022-07-28T17:20:06.882Z,29.68
2022-07-28T17:31:02.439Z,29.30
2022-07-28T17:36:45.169Z,29.59
2022-07-28T17:41:55.930Z,29.55
2022-07-28T17:47:04.159Z,29.47
2022-07-28T17:52:32.348Z,29.69
2022-07-28T17:58:08.946Z,29.61
2022-07-28T18:03:18.642Z,29.45
2022-07-28T18:09:08.177Z,29.16
2022-07-28T18:15:03.185Z,28.56
2022-07-28T18:20:38.105Z,28.04
2022-07-28T18:25:55.169Z,27.45
2022-07-28T18:30:52.658Z,27.41
2022-07-28T18:35:51.959Z,26.97
2022-07-28T18:40:52.761Z,26.79
2022-07-28T18:45:51.789Z,26.85
2022-07-28T18:50:50.384Z,26.85
2022-07-28T18:55:48.842Z,26.49
2022-07-28T19:00:47.521Z,26.72
2022-07-28T19:06:08.153Z,27.17
2022-07-28T19:11:05.647Z,27.44
2022-07-28T19:16:04.567Z,27.83
2022-07-28T19:21:10.524Z,27.88
2022-07-28T19:26:08.670Z,28.34
2022-07-28T19:31:10.115Z,28.55
2022-07-28T19:36:24.339Z,28.72
2022-07-28T19:41:30.824Z,28.84
2022-07-28T19:47:38.157Z,28.94
2022-07-28T19:52:37.455Z,28.92
2022-07-28T19:58:49.507Z,28.69
2022-07-28T20:04:03.748Z,28.37
2022-07-28T20:09:08.077Z,28.36
2022-07-28T20:19:51.085Z,28.45
2022-07-28T20:24:48.817Z,28.77
2022-07-28T20:29:48.341Z,28.76
2022-07-28T20:34:53.030Z,28.73
2022-07-28T20:39:54.767Z,28.67
2022-07-28T20:44:54.314Z,28.09
2022-07-28T20:49:55.162Z,28.34
2022-07-28T20:54:54.867Z,28.43
2022-07-28T20:59:53.077Z,28.28
2022-07-28T21:04:50.736Z,28.44
2022-07-28T21:09:48.173Z,28.04
2022-07-28T21:15:53.537Z,27.83
2022-07-28T21:21:13.366Z,27.90
2022-07-28T21:26:55.764Z,28.32
2022-07-28T21:33:07.183Z,27.90
2022-07-28T21:38:26.170Z,27.86
2022-07-28T21:43:24.533Z,28.20
2022-07-28T21:48:24.373Z,28.08
2022-07-28T21:53:21.795Z,27.59
2022-07-28T21:58:19.071Z,27.58
2022-07-28T22:03:16.640Z,27.51
2022-07-28T22:08:14.986Z,27.47
2022-07-28T22:13:12.306Z,27.11
2022-07-28T22:18:13.409Z,26.98
2022-07-28T22:23:28.676Z,26.75
2022-07-28T22:28:29.938Z,26.55
2022-07-28T22:33:27.839Z,26.86
2022-07-28T22:38:26.364Z,26.83
2022-07-28T22:43:24.634Z,27.38
2022-07-28T22:48:21.591Z,27.43
2022-07-28T22:53:19.637Z,27.51
2022-07-28T22:58:18.400Z,27.28
2022-07-28T23:03:15.961Z,27.83
2022-07-28T23:08:13.545Z,27.03
2022-07-28T23:13:10.785Z,26.94
2022-07-28T23:18:09.526Z,26.33
2022-07-28T23:23:08.185Z,25.92
2022-07-28T23:28:05.694Z,25.76
2022-07-28T23:33:04.011Z,25.67
2022-07-28T23:38:02.160Z,25.93
2022-07-28T23:42:59.377Z,25.65
2022-07-28T23:47:58.945Z,26.27
2022-07-28T23:52:56.367Z,26.31
2022-07-28T23:57:58.037Z,26.24
